createdAt,value
2019-05-18T00:01:50.153Z,10.10
2019-05-18T00:04:20.597Z,10.00
2019-05-18T00:06:51.405Z,10.00
2019-05-18T00:09:21.889Z,9.90
2019-05-18T00:11:52.544Z,9.80
2019-05-18T00:14:22.942Z,9.80
2019-05-18T00:16:53.278Z,9.80
2019-05-18T00:19:23.696Z,9.80
2019-05-18T00:21:53.751Z,9.70
2019-05-18T00:24:25.661Z,9.70
2019-05-18T00:26:55.686Z,9.70
2019-05-18T00:29:26.232Z,9.70
2019-05-18T00:31:56.758Z,9.80
2019-05-18T00:34:28.310Z,9.70
2019-05-18T00:36:58.835Z,9.70
2019-05-18T00:39:29.679Z,9.70
2019-05-18T00:42:00.212Z,9.70
2019-05-18T00:44:30.640Z,9.70
2019-05-18T00:47:01.512Z,9.70
2019-05-18T00:49:31.495Z,9.70
2019-05-18T00:52:03.132Z,9.70
2019-05-18T00:54:33.888Z,9.70
2019-05-18T00:57:04.393Z,9.80
2019-05-18T00:59:34.515Z,9.70
2019-05-18T01:02:04.548Z,9.60
2019-05-18T01:04:40.125Z,9.60
2019-05-18T01:07:14.654Z,9.40
2019-05-18T01:09:45.167Z,9.40
2019-05-18T01:12:15.536Z,9.40
2019-05-18T01:14:45.635Z,9.40
2019-05-18T01:17:16.030Z,9.30
2019-05-18T01:19:46.888Z,9.30
2019-05-18T01:22:17.254Z,9.20
2019-05-18T01:24:48.679Z,9.20
2019-05-18T01:27:18.723Z,9.40
2019-05-18T01:29:49.153Z,9.50
2019-05-18T01:32:19.849Z,9.50
2019-05-18T01:34:50.351Z,9.50
2019-05-18T01:37:20.758Z,9.50
2019-05-18T01:39:50.824Z,9.50
2019-05-18T01:42:21.096Z,9.50
2019-05-18T01:44:51.474Z,9.40
2019-05-18T01:47:21.707Z,9.50
2019-05-18T01:49:52.098Z,9.60
2019-05-18T01:52:22.194Z,9.60
2019-05-18T01:54:52.241Z,9.60
2019-05-18T01:57:22.520Z,9.60
2019-05-18T01:59:54.004Z,9.50
2019-05-18T02:02:24.717Z,9.50
2019-05-18T02:04:55.159Z,9.40
2019-05-18T02:07:25.589Z,9.30
2019-05-18T02:09:55.905Z,9.40
2019-05-18T02:12:25.917Z,9.40
2019-05-18T02:14:56.033Z,9.30
2019-05-18T02:17:26.099Z,9.30
2019-05-18T02:19:56.501Z,9.40
2019-05-18T02:22:26.880Z,9.40
2019-05-18T02:24:57.747Z,9.30
2019-05-18T02:27:29.097Z,9.40
2019-05-18T02:29:59.220Z,9.40
2019-05-18T02:32:29.600Z,9.30
2019-05-18T02:34:59.720Z,9.30
2019-05-18T02:37:30.183Z,9.30
2019-05-18T02:40:00.193Z,9.20
2019-05-18T02:42:30.939Z,9.20
2019-05-18T02:45:01.974Z,9.20
2019-05-18T02:47:32.406Z,9.10
2019-05-18T02:50:02.875Z,9.10
2019-05-18T02:52:33.363Z,9.00
2019-05-18T02:55:03.835Z,8.90
2019-05-18T02:57:34.340Z,8.90
2019-05-18T03:00:06.878Z,8.90
2019-05-18T03:02:37.329Z,9.00
2019-05-18T03:05:07.566Z,9.00
2019-05-18T03:07:37.710Z,8.90
2019-05-18T03:10:09.927Z,8.90
2019-05-18T03:12:40.447Z,8.80
2019-05-18T03:15:11.107Z,8.70
2019-05-18T03:17:41.517Z,8.70
2019-05-18T03:20:12.414Z,8.70
2019-05-18T03:22:42.450Z,8.70
2019-05-18T03:25:13.241Z,8.60
2019-05-18T03:27:44.064Z,8.50
2019-05-18T03:30:14.568Z,8.50
2019-05-18T03:32:44.626Z,8.50
2019-05-18T03:35:14.674Z,8.50
2019-05-18T03:37:45.028Z,8.60
2019-05-18T03:40:15.028Z,8.70
2019-05-18T03:42:45.383Z,8.70
2019-05-18T03:45:15.808Z,8.70
2019-05-18T03:47:46.569Z,8.70
2019-05-18T03:50:16.585Z,8.70
2019-05-18T03:52:47.296Z,8.60
2019-05-18T03:55:17.696Z,8.60
2019-05-18T03:57:47.809Z,8.60
2019-05-18T04:00:21.131Z,8.80
2019-05-18T04:02:51.610Z,10.00
2019-05-18T04:05:22.107Z,11.30
2019-05-18T04:07:52.733Z,12.30
2019-05-18T04:10:26.202Z,13.10
2019-05-18T04:12:56.342Z,13.60
2019-05-18T04:15:26.734Z,13.90
2019-05-18T04:17:58.346Z,14.20
2019-05-18T04:20:28.734Z,14.50
2019-05-18T04:22:59.147Z,14.90
2019-05-18T04:25:29.301Z,15.30
2019-05-18T04:28:00.137Z,15.50
2019-05-18T04:30:31.078Z,15.90
2019-05-18T04:33:02.132Z,15.70
2019-05-18T04:35:34.095Z,15.70
2019-05-18T04:38:04.511Z,15.90
2019-05-18T04:40:34.591Z,16.20
2019-05-18T04:43:04.687Z,15.50
2019-05-18T04:45:35.168Z,14.60
2019-05-18T04:48:05.681Z,13.80
2019-05-18T04:50:35.797Z,13.10
2019-05-18T04:53:06.376Z,12.80
2019-05-18T04:55:37.086Z,12.70
2019-05-18T04:58:07.102Z,12.60
2019-05-18T05:00:37.540Z,12.50
2019-05-18T05:03:08.271Z,12.50
2019-05-18T05:05:38.597Z,12.40
2019-05-18T05:08:08.671Z,12.40
2019-05-18T05:10:38.744Z,12.40
2019-05-18T05:13:10.044Z,12.50
2019-05-18T05:15:40.408Z,12.60
2019-05-18T05:18:11.224Z,12.60
2019-05-18T05:20:41.610Z,12.60
2019-05-18T05:23:12.092Z,12.50
2019-05-18T05:25:42.200Z,12.60
2019-05-18T05:28:12.324Z,12.70
2019-05-18T05:30:42.857Z,12.70
2019-05-18T05:33:12.957Z,12.70
2019-05-18T05:35:43.216Z,12.70
2019-05-18T05:38:13.627Z,12.70
2019-05-18T05:40:44.494Z,12.70
2019-05-18T05:43:14.612Z,12.70
2019-05-18T05:45:45.057Z,12.80
2019-05-18T05:48:15.604Z,12.80
2019-05-18T05:50:46.015Z,12.70
2019-05-18T05:53:16.410Z,12.60
2019-05-18T05:55:46.830Z,12.60
2019-05-18T05:58:17.014Z,12.50
2019-05-18T06:00:47.132Z,12.50
2019-05-18T06:03:17.898Z,12.60
2019-05-18T06:05:48.316Z,12.60
2019-05-18T06:08:18.812Z,12.70
2019-05-18T06:10:48.868Z,12.80
2019-05-18T06:13:19.851Z,12.80
2019-05-18T06:15:49.862Z,12.90
2019-05-18T06:18:20.022Z,12.90
2019-05-18T06:20:51.806Z,12.90
2019-05-18T06:23:24.416Z,13.00
2019-05-18T06:25:54.670Z,13.10
2019-05-18T06:28:27.714Z,13.20
2019-05-18T06:30:59.216Z,13.30
2019-05-18T06:33:32.096Z,13.40
2019-05-18T06:36:13.063Z,13.40
2019-05-18T06:38:43.424Z,13.40
2019-05-18T06:41:16.116Z,13.40
2019-05-18T06:43:46.574Z,13.50
2019-05-18T06:46:17.605Z,13.60
2019-05-18T06:48:47.766Z,13.70
2019-05-18T06:51:17.947Z,13.80
2019-05-18T06:53:48.209Z,13.90
2019-05-18T06:56:19.809Z,14.00
2019-05-18T06:58:51.226Z,14.10
2019-05-18T07:01:22.850Z,14.30
2019-05-18T07:03:53.372Z,14.40
2019-05-18T07:06:23.694Z,14.40
2019-05-18T07:08:54.222Z,14.40
2019-05-18T07:11:24.548Z,14.60
2019-05-18T07:13:55.488Z,14.80
2019-05-18T07:16:25.676Z,14.80
2019-05-18T07:18:56.138Z,14.80
2019-05-18T07:21:27.405Z,14.80
2019-05-18T07:23:57.837Z,14.90
2019-05-18T07:26:28.008Z,15.00
2019-05-18T07:28:58.154Z,15.00
2019-05-18T07:31:28.881Z,14.90
2019-05-18T07:33:59.026Z,15.00
2019-05-18T07:36:29.142Z,15.10
2019-05-18T07:38:59.521Z,15.20
2019-05-18T07:41:45.874Z,15.30
2019-05-18T07:44:05.131Z,15.40
2019-05-18T07:46:35.325Z,15.60
2019-05-18T07:49:07.636Z,15.70
2019-05-18T07:51:37.570Z,15.90
2019-05-18T07:54:07.667Z,16.00
2019-05-18T07:56:37.838Z,16.00
2019-05-18T07:59:07.871Z,16.00
2019-05-18T08:01:37.998Z,16.10
2019-05-18T08:04:08.410Z,16.10
2019-05-18T08:06:38.563Z,16.30
2019-05-18T08:09:09.286Z,16.50
2019-05-18T08:11:40.035Z,16.60
2019-05-18T08:14:10.453Z,16.60
2019-05-18T08:16:40.680Z,16.80
2019-05-18T08:19:11.407Z,16.80
2019-05-18T08:21:52.605Z,16.90
2019-05-18T08:24:13.893Z,16.90
2019-05-18T08:26:44.645Z,16.80
2019-05-18T08:29:14.812Z,16.90
2019-05-18T08:31:45.130Z,16.90
2019-05-18T08:34:15.153Z,17.00
2019-05-18T08:36:45.611Z,17.10
2019-05-18T08:39:16.178Z,17.20
2019-05-18T08:41:48.911Z,17.40
2019-05-18T08:44:19.512Z,17.40
2019-05-18T08:46:49.576Z,17.40
2019-05-18T08:49:19.688Z,17.50
2019-05-18T08:52:06.194Z,17.60
2019-05-18T08:54:23.933Z,17.70
2019-05-18T08:56:54.343Z,17.80
2019-05-18T08:59:24.668Z,18.00
2019-05-18T09:01:54.767Z,18.20
2019-05-18T09:04:24.820Z,18.30
2019-05-18T09:06:54.932Z,18.30
2019-05-18T09:09:25.351Z,18.30
2019-05-18T09:11:55.423Z,18.30
2019-05-18T09:14:28.056Z,18.50
2019-05-18T09:16:58.584Z,18.60
2019-05-18T09:19:29.345Z,18.70
2019-05-18T09:22:02.116Z,18.70
2019-05-18T09:24:32.396Z,18.90
2019-05-18T09:27:02.794Z,19.10
2019-05-18T09:29:32.843Z,19.20
2019-05-18T09:32:03.054Z,19.30
2019-05-18T09:34:33.111Z,19.40
2019-05-18T09:37:03.144Z,19.50
2019-05-18T09:39:34.288Z,19.60
2019-05-18T09:42:06.288Z,19.60
2019-05-18T09:44:36.758Z,19.60
2019-05-18T09:47:06.934Z,19.60
2019-05-18T09:49:37.174Z,19.70
2019-05-18T09:52:07.398Z,19.90
2019-05-18T09:54:37.516Z,19.90
2019-05-18T09:57:07.908Z,20.00
2019-05-18T09:59:38.306Z,20.10
2019-05-18T10:02:08.531Z,20.20
2019-05-18T10:04:39.079Z,20.10
2019-05-18T10:07:09.171Z,20.10
2019-05-18T10:09:39.991Z,20.20
2019-05-18T10:12:10.202Z,20.10
2019-05-18T10:14:40.282Z,20.20
2019-05-18T10:17:11.722Z,20.50
2019-05-18T10:19:41.810Z,20.70
2019-05-18T10:22:12.448Z,20.80
2019-05-18T10:24:42.559Z,20.80
2019-05-18T10:27:12.684Z,20.60
2019-05-18T10:29:46.153Z,20.50
2019-05-18T10:32:15.799Z,20.60
2019-05-18T10:34:46.108Z,20.70
2019-05-18T10:37:16.712Z,20.70
2019-05-18T10:39:46.748Z,20.70
2019-05-18T10:42:16.942Z,20.70
2019-05-18T10:44:47.407Z,20.70
2019-05-18T10:47:17.497Z,20.70
2019-05-18T10:49:48.839Z,21.10
2019-05-18T10:52:19.533Z,21.30
2019-05-18T10:54:49.792Z,21.40
2019-05-18T10:57:20.312Z,21.40
2019-05-18T10:59:50.333Z,21.30
2019-05-18T11:02:21.137Z,21.20
2019-05-18T11:04:51.508Z,21.30
2019-05-18T11:07:21.880Z,21.30
2019-05-18T11:09:52.016Z,21.50
2019-05-18T11:12:22.434Z,21.60
2019-05-18T11:14:52.548Z,21.50
2019-05-18T11:17:22.610Z,21.60
2019-05-18T11:19:52.620Z,21.70
2019-05-18T11:22:23.741Z,21.40
2019-05-18T11:24:54.152Z,21.50
2019-05-18T11:27:24.508Z,21.40
2019-05-18T11:29:54.872Z,21.30
2019-05-18T11:32:24.950Z,21.50
2019-05-18T11:34:55.267Z,21.60
2019-05-18T11:37:25.610Z,21.60
2019-05-18T11:39:56.474Z,21.50
2019-05-18T11:42:26.763Z,21.40
2019-05-18T11:44:56.817Z,21.40
2019-05-18T11:47:27.619Z,21.60
2019-05-18T11:49:57.690Z,21.70
2019-05-18T11:52:28.186Z,21.80
2019-05-18T11:54:58.280Z,22.00
2019-05-18T11:57:28.726Z,21.80
2019-05-18T11:59:58.764Z,22.00
2019-05-18T12:02:29.074Z,22.10
2019-05-18T12:04:59.237Z,22.00
2019-05-18T12:07:29.573Z,22.10
2019-05-18T12:10:02.955Z,22.20
2019-05-18T12:12:34.121Z,22.20
2019-05-18T12:15:05.175Z,22.10
2019-05-18T12:17:35.890Z,22.00
2019-05-18T12:20:07.315Z,22.10
2019-05-18T12:22:38.373Z,22.40
2019-05-18T12:25:09.950Z,22.50
2019-05-18T12:27:40.473Z,22.50
2019-05-18T12:30:12.082Z,22.60
2019-05-18T12:32:42.485Z,22.60
2019-05-18T12:35:13.851Z,22.80
2019-05-18T12:37:44.524Z,22.90
2019-05-18T12:40:18.029Z,22.80
2019-05-18T12:42:48.098Z,22.50
2019-05-18T12:45:20.277Z,22.00
2019-05-18T12:47:50.743Z,22.00
2019-05-18T12:50:21.540Z,21.90
2019-05-18T12:52:51.619Z,22.00
2019-05-18T12:55:22.478Z,22.10
2019-05-18T12:57:52.551Z,22.30
2019-05-18T13:00:23.243Z,22.50
2019-05-18T13:02:53.308Z,22.70
2019-05-18T13:05:23.343Z,22.90
2019-05-18T13:07:53.438Z,23.00
2019-05-18T13:10:24.013Z,22.80
2019-05-18T13:12:54.172Z,22.90
2019-05-18T13:15:24.621Z,22.90
2019-05-18T13:17:54.943Z,22.80
2019-05-18T13:20:25.447Z,22.80
2019-05-18T13:22:55.491Z,22.90
2019-05-18T13:25:26.017Z,22.90
2019-05-18T13:27:57.425Z,23.00
2019-05-18T13:30:27.648Z,23.00
2019-05-18T13:32:57.727Z,22.90
2019-05-18T13:35:28.096Z,22.60
2019-05-18T13:37:58.507Z,22.50
2019-05-18T13:40:28.610Z,22.50
2019-05-18T13:42:58.685Z,22.80
2019-05-18T13:45:28.862Z,23.10
2019-05-18T13:47:58.934Z,23.10
2019-05-18T13:50:29.363Z,23.30
2019-05-18T13:52:59.542Z,23.30
2019-05-18T13:55:29.679Z,23.40
2019-05-18T13:58:00.262Z,23.40
2019-05-18T14:00:30.372Z,23.40
2019-05-18T14:03:00.458Z,23.40
2019-05-18T14:05:33.227Z,23.40
2019-05-18T14:08:03.240Z,23.40
2019-05-18T14:10:35.110Z,23.30
2019-05-18T14:13:05.154Z,23.30
2019-05-18T14:15:35.206Z,23.20
2019-05-18T14:18:06.608Z,23.30
2019-05-18T14:20:37.123Z,23.30
2019-05-18T14:23:07.345Z,23.40
2019-05-18T14:25:37.595Z,23.40
2019-05-18T14:28:08.023Z,23.30
2019-05-18T14:30:38.380Z,23.00
2019-05-18T14:33:08.890Z,22.90
2019-05-18T14:35:39.020Z,22.80
2019-05-18T14:38:09.082Z,22.80
2019-05-18T14:40:39.236Z,22.80
2019-05-18T14:43:09.736Z,22.80
2019-05-18T14:45:40.478Z,22.80
2019-05-18T14:48:10.544Z,22.90
2019-05-18T14:50:40.648Z,22.80
2019-05-18T14:53:11.057Z,22.60
2019-05-18T14:55:41.173Z,22.50
2019-05-18T14:58:11.371Z,22.50
2019-05-18T15:00:41.816Z,22.50
2019-05-18T15:03:12.247Z,22.50
2019-05-18T15:05:42.792Z,22.50
2019-05-18T15:08:13.103Z,22.50
2019-05-18T15:10:44.131Z,22.50
2019-05-18T15:13:14.894Z,22.50
2019-05-18T15:15:44.932Z,22.50
2019-05-18T15:18:15.988Z,22.50
2019-05-18T15:20:46.183Z,22.50
2019-05-18T15:23:16.478Z,22.40
2019-05-18T15:25:50.875Z,22.40
2019-05-18T15:28:18.511Z,22.40
2019-05-18T15:30:48.621Z,22.30
2019-05-18T15:33:18.649Z,22.30
2019-05-18T15:35:50.090Z,22.30
2019-05-18T15:38:20.101Z,22.30
2019-05-18T15:40:50.180Z,22.20
2019-05-18T15:43:20.658Z,22.20
2019-05-18T15:45:50.907Z,22.10
2019-05-18T15:48:22.239Z,22.00
2019-05-18T15:50:52.358Z,22.00
2019-05-18T15:53:23.956Z,22.00
2019-05-18T15:56:05.409Z,21.90
2019-05-18T15:58:26.250Z,21.80
2019-05-18T16:00:56.405Z,21.80
2019-05-18T16:03:26.868Z,21.70
2019-05-18T16:05:56.911Z,21.80
2019-05-18T16:08:27.027Z,21.80
2019-05-18T16:10:57.309Z,22.00
2019-05-18T16:13:27.967Z,22.00
2019-05-18T16:15:58.226Z,22.10
2019-05-18T16:18:28.404Z,22.10
2019-05-18T16:20:58.860Z,22.10
2019-05-18T16:23:29.383Z,22.20
2019-05-18T16:25:59.469Z,22.10
2019-05-18T16:28:29.597Z,22.20
2019-05-18T16:30:59.970Z,22.30
2019-05-18T16:33:30.418Z,22.30
2019-05-18T16:36:02.014Z,22.40
2019-05-18T16:38:32.601Z,22.50
2019-05-18T16:41:02.703Z,22.50
2019-05-18T16:43:33.829Z,22.50
2019-05-18T16:46:03.998Z,22.50
2019-05-18T16:48:35.197Z,22.50
2019-05-18T16:51:05.269Z,22.40
2019-05-18T16:53:37.090Z,22.30
2019-05-18T16:56:08.640Z,22.30
2019-05-18T16:58:38.854Z,22.20
2019-05-18T17:01:10.137Z,22.10
2019-05-18T17:03:40.676Z,22.00
2019-05-18T17:06:11.113Z,21.90
2019-05-18T17:08:41.262Z,21.80
2019-05-18T17:11:11.758Z,21.70
2019-05-18T17:13:43.773Z,21.70
2019-05-18T17:16:13.940Z,21.60
2019-05-18T17:18:44.025Z,21.50
2019-05-18T17:21:14.116Z,21.40
2019-05-18T17:23:44.199Z,21.40
2019-05-18T17:26:14.439Z,21.30
2019-05-18T17:28:44.796Z,21.20
2019-05-18T17:31:15.137Z,21.20
2019-05-18T17:33:45.323Z,21.10
2019-05-18T17:36:15.449Z,21.00
2019-05-18T17:38:45.907Z,20.90
2019-05-18T17:41:16.363Z,20.90
2019-05-18T17:43:46.490Z,20.80
2019-05-18T17:46:17.380Z,20.70
2019-05-18T17:48:47.456Z,20.60
2019-05-18T17:51:17.976Z,20.50
2019-05-18T17:53:48.040Z,20.50
2019-05-18T17:56:18.195Z,20.40
2019-05-18T17:58:49.015Z,20.30
2019-05-18T18:01:19.380Z,20.20
2019-05-18T18:03:49.543Z,20.20
2019-05-18T18:06:19.924Z,20.10
2019-05-18T18:08:50.001Z,20.00
2019-05-18T18:11:20.084Z,19.90
2019-05-18T18:13:50.386Z,19.80
2019-05-18T18:16:20.884Z,19.70
2019-05-18T18:18:51.026Z,19.60
2019-05-18T18:21:22.409Z,19.50
2019-05-18T18:23:55.064Z,19.40
2019-05-18T18:26:26.052Z,19.40
2019-05-18T18:28:56.128Z,19.20
2019-05-18T18:31:26.538Z,19.20
2019-05-18T18:33:57.305Z,19.10
2019-05-18T18:36:27.978Z,18.90
2019-05-18T18:38:58.375Z,18.80
2019-05-18T18:41:28.936Z,18.70
2019-05-18T18:43:59.029Z,18.60
2019-05-18T18:46:29.477Z,18.40
2019-05-18T18:48:59.899Z,18.40
2019-05-18T18:51:30.516Z,18.30
2019-05-18T18:54:00.590Z,18.20
2019-05-18T18:56:32.423Z,18.20
2019-05-18T18:59:02.659Z,18.10
2019-05-18T19:01:34.858Z,18.10
2019-05-18T19:04:04.967Z,18.00
2019-05-18T19:06:35.405Z,18.00
2019-05-18T19:09:07.352Z,17.90
2019-05-18T19:11:37.743Z,17.90
2019-05-18T19:14:07.902Z,17.80
2019-05-18T19:16:39.853Z,17.70
2019-05-18T19:19:09.961Z,17.70
2019-05-18T19:21:40.027Z,17.60
2019-05-18T19:24:10.157Z,17.50
2019-05-18T19:26:40.761Z,17.40
2019-05-18T19:29:11.166Z,17.30
2019-05-18T19:31:41.327Z,17.30
2019-05-18T19:34:11.425Z,17.20
2019-05-18T19:36:41.599Z,17.20
2019-05-18T19:39:11.760Z,17.10
2019-05-18T19:41:42.795Z,17.00
2019-05-18T19:44:13.031Z,17.00
2019-05-18T19:46:43.050Z,16.90
2019-05-18T19:49:13.086Z,16.80
2019-05-18T19:51:43.218Z,16.70
2019-05-18T19:54:40.249Z,16.70
2019-05-18T19:56:56.308Z,16.60
2019-05-18T19:59:26.416Z,16.50
2019-05-18T20:01:56.476Z,16.50
2019-05-18T20:04:26.734Z,16.40
2019-05-18T20:06:56.852Z,16.50
2019-05-18T20:09:27.300Z,16.50
2019-05-18T20:11:57.742Z,16.50
2019-05-18T20:14:28.191Z,16.40
2019-05-18T20:16:58.431Z,16.40
2019-05-18T20:19:38.570Z,16.30
2019-05-18T20:22:00.868Z,16.40
2019-05-18T20:24:30.991Z,16.30
2019-05-18T20:27:02.142Z,16.30
2019-05-18T20:29:32.865Z,16.20
2019-05-18T20:32:03.006Z,16.20
2019-05-18T20:34:33.507Z,16.10
2019-05-18T20:37:03.928Z,16.00
2019-05-18T20:39:34.673Z,16.00
2019-05-18T20:42:05.268Z,15.90
2019-05-18T20:44:35.630Z,15.90
2019-05-18T20:47:06.042Z,15.90
2019-05-18T20:49:36.145Z,15.80
2019-05-18T20:52:06.698Z,15.70
2019-05-18T20:54:37.127Z,15.70
2019-05-18T20:57:07.301Z,15.60
2019-05-18T20:59:37.327Z,15.50
2019-05-18T21:02:07.773Z,15.50
2019-05-18T21:04:37.956Z,15.40
2019-05-18T21:07:08.103Z,15.40
2019-05-18T21:09:38.185Z,15.40
2019-05-18T21:12:08.693Z,15.30
2019-05-18T21:14:39.520Z,15.30
2019-05-18T21:17:09.744Z,15.20
2019-05-18T21:19:39.871Z,15.20
2019-05-18T21:22:10.409Z,15.20
2019-05-18T21:24:40.836Z,15.20
2019-05-18T21:27:10.931Z,15.10
2019-05-18T21:29:41.093Z,15.00
2019-05-18T21:32:11.248Z,14.90
2019-05-18T21:34:41.897Z,14.80
2019-05-18T21:37:15.715Z,14.70
2019-05-18T21:39:45.785Z,14.60
2019-05-18T21:42:15.991Z,14.50
2019-05-18T21:44:46.133Z,14.50
2019-05-18T21:47:16.621Z,14.50
2019-05-18T21:49:47.093Z,14.40
2019-05-18T21:52:17.541Z,14.40
2019-05-18T21:54:47.795Z,14.40
2019-05-18T21:57:17.891Z,14.50
2019-05-18T21:59:48.225Z,14.50
2019-05-18T22:02:18.293Z,14.40
2019-05-18T22:04:48.300Z,14.40
2019-05-18T22:07:18.500Z,14.30
2019-05-18T22:09:48.903Z,14.50
2019-05-18T22:12:19.296Z,14.70
2019-05-18T22:14:49.652Z,14.80
2019-05-18T22:17:20.541Z,14.80
2019-05-18T22:19:50.720Z,14.90
2019-05-18T22:22:20.803Z,14.80
2019-05-18T22:24:50.907Z,14.80
2019-05-18T22:27:21.373Z,14.80
2019-05-18T22:29:51.815Z,14.70
2019-05-18T22:32:22.415Z,14.60
2019-05-18T22:34:53.886Z,14.60
2019-05-18T22:37:24.071Z,14.50
2019-05-18T22:39:54.888Z,14.40
2019-05-18T22:42:25.033Z,14.40
2019-05-18T22:44:55.185Z,14.40
2019-05-18T22:47:25.618Z,14.30
2019-05-18T22:49:55.929Z,14.20
2019-05-18T22:52:26.453Z,14.20
2019-05-18T22:54:57.228Z,14.20
2019-05-18T22:57:27.653Z,14.10
2019-05-18T22:59:58.254Z,14.10
2019-05-18T23:02:28.258Z,14.00
2019-05-18T23:04:58.396Z,14.00
2019-05-18T23:07:28.823Z,13.90
2019-05-18T23:09:59.734Z,13.80
2019-05-18T23:12:29.798Z,13.70
2019-05-18T23:15:00.223Z,13.70
2019-05-18T23:17:30.298Z,13.60
2019-05-18T23:20:01.845Z,13.50
2019-05-18T23:22:32.279Z,13.40
2019-05-18T23:25:02.713Z,13.40
2019-05-18T23:27:33.067Z,13.30
2019-05-18T23:30:03.344Z,13.30
2019-05-18T23:32:33.480Z,13.30
2019-05-18T23:35:03.555Z,13.20
2019-05-18T23:37:35.264Z,13.20
2019-05-18T23:40:06.178Z,13.20
2019-05-18T23:42:36.675Z,13.10
2019-05-18T23:45:07.944Z,13.00
2019-05-18T23:47:38.448Z,13.00
2019-05-18T23:50:09.241Z,12.90
2019-05-18T23:52:40.011Z,12.90
2019-05-18T23:55:11.038Z,12.90
2019-05-18T23:57:41.860Z,12.80
